Time;durP1;ratioP1;P1;durP2;ratioP2;P2;SDS_P1;SDS_P2;PMS_P1;PMS_P2;Temp;Humidity;BMP_temperature;BMP_pressure;BME280_temperature;BME280_humidity;BME280_pressure;Samples;Min_cycle;Max_cycle;Signal;HPM_P1;HPM_P2
2024/03/19 00:02:07;;;;;;;15.60;13.20;;;;;;;6.30;100.00;100687.84;106043;1254;72707;-73
2024/03/19 00:04:35;;;;;;;16.20;14.30;;;;;;;6.23;100.00;100685.34;105738;1256;62297;-75
2024/03/19 00:07:03;;;;;;;17.20;13.50;;;;;;;6.18;100.00;100683.48;105835;1252;72814;-73
2024/03/19 00:09:30;;;;;;;17.80;15.50;;;;;;;6.15;100.00;100680.66;105879;1258;60670;-77
2024/03/19 00:11:57;;;;;;;18.00;16.10;;;;;;;6.11;100.00;100679.59;105819;1257;60493;-74
2024/03/19 00:14:24;;;;;;;19.00;16.10;;;;;;;6.09;100.00;100676.40;105741;1251;74547;-74
2024/03/19 00:16:51;;;;;;;19.30;17.20;;;;;;;6.09;100.00;100676.91;105728;1257;64448;-74
2024/03/19 00:19:19;;;;;;;18.60;15.50;;;;;;;6.08;100.00;100678.85;105815;1254;72595;-75
2024/03/19 00:21:46;;;;;;;15.50;13.10;;;;;;;6.10;100.00;100674.09;105688;1251;60953;-74
2024/03/19 00:24:14;;;;;;;12.10;10.80;;;;;;;6.15;100.00;100674.76;105786;1251;60521;-75
2024/03/19 00:26:41;;;;;;;14.30;12.80;;;;;;;6.18;100.00;100684.67;105772;1251;73629;-76
2024/03/19 00:29:10;;;;;;;12.00;10.80;;;;;;;6.21;100.00;100693.77;105847;1251;62379;-75
2024/03/19 00:31:37;;;;;;;10.70;9.60;;;;;;;6.18;100.00;100688.52;105836;1253;72847;-77
2024/03/19 00:34:04;;;;;;;9.80;8.80;;;;;;;6.13;100.00;100683.34;105738;1256;60483;-75
2024/03/19 00:36:31;;;;;;;12.30;10.00;;;;;;;6.13;100.00;100688.04;105775;1255;60613;-74
2024/03/19 00:38:59;;;;;;;10.50;9.50;;;;;;;6.12;100.00;100689.80;105686;1257;73853;-77
2024/03/19 00:41:26;;;;;;;8.90;8.00;;;;;;;6.14;100.00;100688.16;105866;1251;62533;-75
2024/03/19 00:43:54;;;;;;;10.40;8.40;;;;;;;6.14;100.00;100684.15;105629;1258;72672;-73
2024/03/19 00:46:21;;;;;;;9.10;8.10;;;;;;;6.13;100.00;100680.91;105710;1251;61769;-73
2024/03/19 00:48:49;;;;;;;9.00;8.20;;;;;;;6.15;100.00;100679.09;105868;1251;60730;-74
2024/03/19 00:51:16;;;;;;;11.60;9.40;;;;;;;6.19;100.00;100681.86;105682;1251;73895;-73
2024/03/19 00:53:44;;;;;;;16.20;14.40;;;;;;;6.25;100.00;100683.55;105698;1251;62129;-75
2024/03/19 00:56:11;;;;;;;16.70;15.00;;;;;;;6.28;100.00;100680.65;105860;1252;72789;-74
2024/03/19 00:58:38;;;;;;;14.00;12.60;;;;;;;6.29;100.00;100672.46;105744;1251;61035;-75
2024/03/19 01:01:06;;;;;;;14.90;13.30;;;;;;;6.29;100.00;100668.61;105762;1256;60666;-74
2024/03/19 01:03:33;;;;;;;15.20;13.60;;;;;;;6.26;100.00;100663.73;105753;1251;72530;-74
2024/03/19 01:06:00;;;;;;;17.40;14.10;;;;;;;6.22;100.00;100666.13;105720;1251;63648;-76
2024/03/19 01:08:28;;;;;;;20.00;16.00;;;;;;;6.21;100.00;100676.39;105699;1254;71881;-76
2024/03/19 01:11:01;;;;;;;17.30;15.30;;;;;;;6.23;100.00;100674.41;105777;1254;60521;-74
2024/03/19 01:13:29;;;;;;;16.00;14.50;;;;;;;6.27;100.00;100674.63;105790;1251;60444;-75
2024/03/19 01:15:57;;;;;;;18.30;14.50;;;;;;;6.28;100.00;100675.98;105741;1251;73568;-76
2024/03/19 01:18:25;;;;;;;18.50;15.30;;;;;;;6.26;100.00;100675.71;105833;1257;63859;-75
2024/03/19 01:20:53;;;;;;;15.80;13.20;;;;;;;6.23;100.00;100675.48;105693;1254;74901;-73
2024/03/19 01:23:20;;;;;;;14.30;12.60;;;;;;;6.20;100.00;100673.17;105887;1251;61771;-76
2024/03/19 01:25:47;;;;;;;16.60;13.00;;;;;;;6.18;100.00;100674.28;105808;1256;60501;-75
2024/03/19 01:28:15;;;;;;;12.50;11.20;;;;;;;6.18;100.00;100665.94;105792;1251;72579;-75
2024/03/19 01:30:43;;;;;;;12.10;10.80;;;;;;;6.17;100.00;100662.88;105747;1258;62273;-74
2024/03/19 01:33:14;;;;;;;12.60;11.30;;;;;;;6.13;100.00;100661.48;105717;1267;72380;-73
2024/03/19 01:35:42;;;;;;;11.80;10.50;;;;;;;6.14;100.00;100665.60;105757;1257;60524;-74
2024/03/19 01:38:10;;;;;;;11.90;10.70;;;;;;;6.17;100.00;100667.37;105757;1251;60655;-75
2024/03/19 01:40:37;;;;;;;12.10;10.20;;;;;;;6.20;100.00;100667.96;105774;1256;73915;-73
2024/03/19 01:43:10;;;;;;;11.60;10.40;;;;;;;6.17;100.00;100666.88;105853;1251;63879;-73
2024/03/19 01:45:38;;;;;;;12.00;10.20;;;;;;;6.12;100.00;100679.41;105695;1256;75014;-76
2024/03/19 01:48:05;;;;;;;13.00;11.30;;;;;;;6.09;100.00;100690.96;105862;1257;60527;-73
2024/03/19 01:50:35;;;;;;;13.70;11.80;;;;;;;6.08;100.00;100693.25;105797;1251;60534;-74
2024/03/19 01:53:02;;;;;;;11.20;10.10;;;;;;;6.10;100.00;100694.25;105857;1256;73871;-76
2024/03/19 01:55:29;;;;;;;13.00;10.60;;;;;;;6.12;100.00;100692.59;105732;1251;62424;-77
2024/03/19 01:57:59;;;;;;;12.30;11.00;;;;;;;6.12;100.00;100685.45;105666;1252;73155;-74
2024/03/19 02:00:26;;;;;;;11.30;10.20;;;;;;;6.12;100.00;100681.13;105903;1251;60818;-75
2024/03/19 02:02:53;;;;;;;12.10;10.90;;;;;;;6.08;100.00;100672.09;105922;1255;60526;-74
2024/03/19 02:05:21;;;;;;;11.40;10.20;;;;;;;6.03;100.00;100665.89;105895;1251;72647;-74
2024/03/19 02:07:48;;;;;;;9.40;8.50;;;;;;;5.97;100.00;100675.98;105870;1257;63721;-77
2024/03/19 02:10:15;;;;;;;10.10;9.10;;;;;;;5.96;100.00;100689.21;105892;1253;71439;-74
2024/03/19 02:12:42;;;;;;;12.50;10.30;;;;;;;5.99;100.00;100687.02;105725;1257;61342;-74
2024/03/19 02:15:10;;;;;;;12.20;10.10;;;;;;;6.02;100.00;100690.52;105889;1256;61267;-74
2024/03/19 02:17:37;;;;;;;11.30;9.90;;;;;;;6.06;100.00;100694.02;107497;1251;74821;-72
2024/03/19 02:20:12;;;;;;;11.70;10.40;;;;;;;6.08;100.00;100689.95;106631;1251;62731;-71
2024/03/19 02:22:42;;;;;;;11.80;9.90;;;;;;;6.09;100.00;100693.92;105973;1258;71531;-74
2024/03/19 02:25:10;;;;;;;12.30;11.10;;;;;;;6.09;100.00;100695.66;105750;1257;61337;-73
2024/03/19 02:27:37;;;;;;;11.50;8.80;;;;;;;6.08;100.00;100693.95;105724;1251;61202;-72
2024/03/19 02:30:06;;;;;;;11.80;9.60;;;;;;;6.07;100.00;100694.52;105819;1251;74812;-73
2024/03/19 02:32:33;;;;;;;11.10;10.00;;;;;;;6.07;100.00;100690.54;105798;1256;64421;-73
2024/03/19 02:35:01;;;;;;;12.10;10.80;;;;;;;6.07;100.00;100692.80;105881;1256;71637;-73
2024/03/19 02:37:28;;;;;;;10.80;9.70;;;;;;;6.09;100.00;100693.23;105752;1257;61344;-74
2024/03/19 02:39:56;;;;;;;11.40;10.30;;;;;;;6.09;100.00;100695.30;105838;1256;61254;-74
2024/03/19 02:42:24;;;;;;;15.20;11.00;;;;;;;6.08;100.00;100705.42;105795;1251;74608;-73
2024/03/19 02:44:51;;;;;;;12.90;11.00;;;;;;;6.04;100.00;100702.98;105783;1257;62698;-73
2024/03/19 02:47:18;;;;;;;15.50;12.50;;;;;;;5.97;100.00;100703.21;106091;1255;71873;-72
2024/03/19 02:49:46;;;;;;;12.10;10.70;;;;;;;5.89;100.00;100703.71;106615;1252;61711;-72
2024/03/19 02:52:14;;;;;;;12.30;11.10;;;;;;;5.84;100.00;100709.26;106713;1251;61125;-72
2024/03/19 02:54:41;;;;;;;13.90;11.50;;;;;;;5.84;100.00;100709.79;106703;1252;74677;-72
2024/03/19 02:57:08;;;;;;;15.30;13.70;;;;;;;5.85;100.00;100709.77;108399;1251;63815;-71
2024/03/19 02:59:36;;;;;;;13.20;11.80;;;;;;;5.85;100.00;100709.95;108922;1251;71686;-71
2024/03/19 03:02:03;;;;;;;11.90;10.40;;;;;;;5.84;100.00;100710.68;108984;1251;59228;-71
2024/03/19 03:04:31;;;;;;;12.70;11.20;;;;;;;5.82;100.00;100715.94;107037;1256;61128;-75
2024/03/19 03:06:58;;;;;;;15.20;12.10;;;;;;;5.79;100.00;100723.84;105999;1256;74731;-72
2024/03/19 03:09:25;;;;;;;12.20;11.00;;;;;;;5.73;100.00;100726.16;105853;1251;63868;-76
2024/03/19 03:11:53;;;;;;;12.30;11.20;;;;;;;5.67;100.00;100732.46;105766;1257;71212;-75
2024/03/19 03:14:20;;;;;;;13.70;12.20;;;;;;;5.59;100.00;100732.41;105722;1257;61322;-74
2024/03/19 03:16:47;;;;;;;16.50;13.80;;;;;;;5.52;100.00;100739.27;105726;1251;61213;-75
2024/03/19 03:19:15;;;;;;;17.20;14.50;;;;;;;5.48;100.00;100741.84;105752;1257;74606;-74
2024/03/19 03:21:42;;;;;;;17.60;15.20;;;;;;;5.47;100.00;100747.45;105828;1257;62558;-73
2024/03/19 03:24:09;;;;;;;21.10;18.90;;;;;;;5.43;100.00;100749.84;105756;1251;73660;-74
2024/03/19 03:26:37;;;;;;;25.50;21.60;;;;;;;5.38;100.00;100755.90;105851;1251;61244;-75
2024/03/19 03:29:05;;;;;;;29.50;21.70;;;;;;;5.32;100.00;100754.73;105830;1256;61158;-75
2024/03/19 03:31:33;;;;;;;26.70;19.50;;;;;;;5.26;100.00;100756.71;105909;1251;73586;-74
2024/03/19 03:34:01;;;;;;;23.60;18.80;;;;;;;5.19;100.00;100756.60;105811;1251;61437;-76
2024/03/19 03:36:28;;;;;;;30.00;20.40;;;;;;;5.13;100.00;100757.16;105835;1256;72628;-74
2024/03/19 03:38:55;;;;;;;32.00;20.90;;;;;;;5.09;100.00;100752.27;105798;1251;61323;-74
2024/03/19 03:41:23;;;;;;;25.10;17.90;;;;;;;5.06;100.00;100747.36;105886;1251;61365;-77
2024/03/19 03:43:50;;;;;;;26.00;17.80;;;;;;;5.06;100.00;100754.83;105962;1256;74091;-75
2024/03/19 03:46:18;;;;;;;17.90;14.70;;;;;;;5.04;100.00;100752.80;105884;1257;63547;-74
2024/03/19 03:48:45;;;;;;;22.80;16.80;;;;;;;5.01;100.00;100754.10;106879;1251;72670;-73
2024/03/19 03:51:12;;;;;;;18.80;16.20;;;;;;;4.98;100.00;100758.88;107280;1253;60425;-75
2024/03/19 03:53:40;;;;;;;23.60;18.40;;;;;;;4.96;100.00;100761.20;106227;1251;61297;-73
2024/03/19 03:56:07;;;;;;;22.40;18.60;;;;;;;4.96;100.00;100763.11;105936;1251;74681;-73
2024/03/19 03:58:35;;;;;;;19.40;15.80;;;;;;;4.96;100.00;100764.34;105858;1251;64434;-76
2024/03/19 04:01:03;;;;;;;20.20;16.50;;;;;;;4.95;100.00;100764.19;105660;1258;73184;-73
2024/03/19 04:03:31;;;;;;;21.90;16.60;;;;;;;4.94;100.00;100763.88;105820;1250;61256;-78
2024/03/19 04:05:59;;;;;;;22.20;15.70;;;;;;;4.94;100.00;100768.73;106171;1257;61244;-75
2024/03/19 04:08:26;;;;;;;22.20;16.20;;;;;;;4.95;100.00;100769.73;106802;1251;73417;-74
2024/03/19 04:10:53;;;;;;;25.60;16.70;;;;;;;4.96;100.00;100771.92;107829;1256;62415;-75
2024/03/19 04:13:20;;;;;;;18.70;15.20;;;;;;;4.99;100.00;100777.36;106022;1253;71614;-73
2024/03/19 04:15:50;;;;;;;19.90;14.90;;;;;;;5.02;100.00;100775.73;105767;1253;61266;-75
2024/03/19 04:18:18;;;;;;;16.70;14.60;;;;;;;5.04;100.00;100774.98;105875;1251;61240;-74
2024/03/19 04:20:45;;;;;;;20.60;15.40;;;;;;;5.06;100.00;100778.72;105740;1251;73444;-77
2024/03/19 04:23:13;;;;;;;19.40;16.00;;;;;;;5.08;100.00;100782.63;105764;1251;61811;-78
2024/03/19 04:25:40;;;;;;;19.90;16.10;;;;;;;5.09;100.00;100786.05;105851;1251;73018;-75
2024/03/19 04:28:08;;;;;;;19.20;15.90;;;;;;;5.07;100.00;100789.60;105782;1253;61237;-74
2024/03/19 04:30:35;;;;;;;18.60;15.80;;;;;;;5.04;100.00;100790.58;105759;1251;61397;-78
2024/03/19 04:33:02;;;;;;;16.70;14.90;;;;;;;5.00;100.00;100791.38;105822;1257;74709;-75
2024/03/19 04:35:29;;;;;;;18.10;13.40;;;;;;;4.98;100.00;100792.48;105811;1251;62483;-75
2024/03/19 04:37:58;;;;;;;21.60;15.30;;;;;;;4.98;100.00;100792.31;106114;1251;71113;-74
2024/03/19 04:40:25;;;;;;;17.60;15.20;;;;;;;5.02;100.00;100803.13;106224;1253;61362;-74
2024/03/19 04:42:53;;;;;;;21.60;17.20;;;;;;;5.04;100.00;100805.29;106619;1251;61261;-73
2024/03/19 04:45:21;;;;;;;25.20;19.50;;;;;;;5.09;100.00;100806.85;106715;1251;73424;-72
2024/03/19 04:47:49;;;;;;;28.00;21.10;;;;;;;5.13;100.00;100802.89;107077;1251;62444;-71
2024/03/19 04:50:17;;;;;;;28.50;20.90;;;;;;;5.17;100.00;100805.70;106689;1252;71725;-73
2024/03/19 04:52:44;;;;;;;25.50;19.10;;;;;;;5.20;100.00;100806.10;108008;1251;59955;-73
2024/03/19 04:55:12;;;;;;;24.80;19.40;;;;;;;5.22;100.00;100807.48;109037;1251;59622;-73
2024/03/19 04:57:39;;;;;;;22.70;17.70;;;;;;;5.23;100.00;100802.55;108862;1251;73437;-71
2024/03/19 05:00:11;;;;;;;23.30;17.40;;;;;;;5.31;100.00;100803.14;108009;1251;62328;-74
2024/03/19 05:02:39;;;;;;;21.60;16.60;;;;;;;5.41;100.00;100807.29;106154;1257;70867;-77
2024/03/19 05:05:06;;;;;;;20.20;16.20;;;;;;;5.50;100.00;100808.16;107795;1251;61126;-74
2024/03/19 05:07:33;;;;;;;19.90;15.80;;;;;;;5.63;100.00;100810.15;108721;1251;60142;-74
2024/03/19 05:10:04;;;;;;;18.30;14.90;;;;;;;5.76;100.00;100813.50;106814;1251;74789;-76
2024/03/19 05:12:31;;;;;;;19.80;16.40;;;;;;;5.80;100.00;100816.45;105765;1257;63535;-78
2024/03/19 05:14:58;;;;;;;22.10;16.20;;;;;;;5.78;100.00;100820.52;105848;1251;72640;-76
2024/03/19 05:17:26;;;;;;;21.90;18.30;;;;;;;5.82;100.00;100820.38;105835;1251;61307;-76
2024/03/19 05:19:54;;;;;;;18.30;14.30;;;;;;;5.89;100.00;100816.66;105872;1254;61208;-75
2024/03/19 05:22:21;;;;;;;16.50;12.90;;;;;;;5.92;100.00;100818.79;105845;1252;73432;-76
2024/03/19 05:24:49;;;;;;;14.90;13.00;;;;;;;5.94;100.00;100817.00;105888;1256;62279;-75
2024/03/19 05:27:17;;;;;;;15.90;14.30;;;;;;;5.98;100.00;100817.55;105913;1255;72749;-75
2024/03/19 05:29:44;;;;;;;13.80;12.00;;;;;;;6.05;100.00;100824.40;105788;1253;61298;-73
2024/03/19 05:32:12;;;;;;;17.40;13.50;;;;;;;6.09;100.00;100825.31;105850;1252;61256;-75
2024/03/19 05:34:41;;;;;;;15.60;13.90;;;;;;;6.10;100.00;100826.65;105875;1251;73466;-75
2024/03/19 05:37:08;;;;;;;15.80;13.20;;;;;;;6.11;100.00;100832.70;105792;1256;63576;-76
2024/03/19 05:39:35;;;;;;;15.90;13.60;;;;;;;6.13;100.00;100839.90;105737;1257;72570;-73
2024/03/19 05:42:03;;;;;;;14.00;11.90;;;;;;;6.32;100.00;100839.85;105824;1254;61267;-75
2024/03/19 05:44:30;;;;;;;13.20;11.60;;;;;;;6.62;100.00;100837.65;105883;1253;61206;-77
2024/03/19 05:46:57;;;;;;;11.50;10.20;;;;;;;6.85;100.00;100837.94;105870;1251;74578;-75
2024/03/19 05:49:25;;;;;;;12.00;10.80;;;;;;;7.03;100.00;100836.84;105805;1256;63862;-75
2024/03/19 05:51:52;;;;;;;11.20;9.90;;;;;;;7.12;100.00;100841.00;105771;1255;71371;-74
2024/03/19 05:54:19;;;;;;;12.10;11.00;;;;;;;7.12;100.00;100843.61;105913;1253;61327;-75
2024/03/19 05:56:47;;;;;;;15.30;11.30;;;;;;;7.10;100.00;100842.11;105891;1251;61153;-73
2024/03/19 05:59:14;;;;;;;10.30;9.30;;;;;;;7.10;100.00;100847.16;105823;1251;74608;-75
2024/03/19 06:01:42;;;;;;;11.50;10.40;;;;;;;7.11;100.00;100847.64;105932;1252;62802;-76
2024/03/19 06:04:09;;;;;;;11.30;10.10;;;;;;;7.09;100.00;100854.50;105825;1256;72786;-74
2024/03/19 06:06:37;;;;;;;10.20;9.20;;;;;;;7.09;100.00;100857.30;105846;1256;61363;-73
2024/03/19 06:09:04;;;;;;;8.50;7.70;;;;;;;7.12;100.00;100863.58;105879;1257;62791;-77
2024/03/19 06:11:32;;;;;;;8.80;8.00;;;;;;;7.19;100.00;100858.09;105878;1251;73635;-76
2024/03/19 06:14:00;;;;;;;10.40;9.40;;;;;;;7.21;100.00;100860.59;105794;1253;62688;-76
2024/03/19 06:16:27;;;;;;;11.30;9.80;;;;;;;7.22;100.00;100863.01;105708;1251;73079;-75
2024/03/19 06:18:55;;;;;;;11.50;10.30;;;;;;;7.30;100.00;100867.36;105725;1257;61161;-75
2024/03/19 06:21:24;;;;;;;10.80;9.80;;;;;;;7.39;100.00;100862.60;105783;1256;61190;-75
2024/03/19 06:23:52;;;;;;;12.20;10.80;;;;;;;7.49;100.00;100865.88;105835;1256;73779;-75
2024/03/19 06:26:20;;;;;;;12.20;10.90;;;;;;;7.56;100.00;100863.14;105748;1255;62732;-77
2024/03/19 06:28:47;;;;;;;14.30;10.90;;;;;;;7.56;100.00;100862.94;105721;1253;71470;-75
2024/03/19 06:31:15;;;;;;;12.50;10.80;;;;;;;7.56;100.00;100863.27;105762;1251;61824;-75
2024/03/19 06:33:43;;;;;;;10.30;9.30;;;;;;;7.70;100.00;100861.83;105731;1256;61315;-75
2024/03/19 06:36:10;;;;;;;11.70;9.90;;;;;;;8.01;100.00;100860.27;105774;1251;73604;-76
2024/03/19 06:38:38;;;;;;;10.20;9.20;;;;;;;8.27;100.00;100868.83;105981;1257;63669;-74
2024/03/19 06:41:05;;;;;;;13.20;11.00;;;;;;;8.39;100.00;100873.81;105819;1251;72744;-75
2024/03/19 06:56:22;;;;;;;15.00;13.40;;;;;;;8.46;100.00;100896.34;102517;1289;615507;-76
2024/03/19 06:58:49;;;;;;;13.90;12.40;;;;;;;8.39;100.00;100896.33;104986;1267;59606;-76
2024/03/19 07:01:16;;;;;;;16.80;14.20;;;;;;;8.21;100.00;100896.45;105071;1266;59744;-75
2024/03/19 07:03:42;;;;;;;16.30;14.60;;;;;;;8.01;100.00;100897.86;104990;1266;73012;-76
2024/03/19 07:06:12;;;;;;;14.20;12.60;;;;;;;7.87;100.00;100898.15;104954;1268;63872;-76
2024/03/19 07:08:41;;;;;;;13.50;11.80;;;;;;;7.80;100.00;100900.72;104890;1268;225975;-75
2024/03/19 07:11:09;;;;;;;16.90;13.40;;;;;;;7.76;100.00;100901.02;105173;1263;59724;-77
2024/03/19 07:13:36;;;;;;;14.50;13.00;;;;;;;7.79;100.00;100902.67;105253;1263;60178;-74
2024/03/19 07:16:03;;;;;;;15.30;13.50;;;;;;;7.79;100.00;100903.89;105128;1263;72196;-77
2024/03/19 07:18:30;;;;;;;22.60;17.60;;;;;;;7.79;100.00;100903.52;105065;1265;64075;-75
2024/03/19 07:20:57;;;;;;;31.00;21.40;;;;;;;7.77;100.00;100905.19;105125;1265;74001;-78
2024/03/19 07:23:24;;;;;;;34.00;26.10;;;;;;;7.71;100.00;100905.95;105211;1265;61160;-77
2024/03/19 07:25:54;;;;;;;39.00;28.70;;;;;;;7.62;100.00;100911.89;105092;1263;62168;-75
2024/03/19 07:28:20;;;;;;;38.60;28.60;;;;;;;7.54;100.00;100904.24;105064;1264;73069;-75
2024/03/19 07:30:48;;;;;;;42.10;30.00;;;;;;;7.55;100.00;100898.52;105312;1265;64071;-75
2024/03/19 07:33:14;;;;;;;34.30;27.40;;;;;;;7.56;100.00;100899.65;105121;1263;71575;-75
2024/03/19 07:35:41;;;;;;;36.00;27.90;;;;;;;7.52;100.00;100897.39;105266;1264;60692;-76
2024/03/19 07:38:08;;;;;;;34.80;27.00;;;;;;;7.45;100.00;100899.22;105973;1251;60519;-76
2024/03/19 07:40:35;;;;;;;37.60;29.50;;;;;;;7.39;100.00;100902.27;105912;1252;73930;-75
2024/03/19 07:43:03;;;;;;;36.30;28.50;;;;;;;7.36;100.00;100902.93;106007;1250;63104;-77
2024/03/19 07:45:30;;;;;;;37.30;28.70;;;;;;;7.39;100.00;100904.01;105972;1250;73635;-78
2024/03/19 07:47:58;;;;;;;40.20;30.30;;;;;;;7.48;100.00;100904.51;106032;1250;62429;-75
2024/03/19 07:50:28;;;;;;;32.70;26.20;;;;;;;7.64;100.00;100901.39;107704;1250;60978;-75
2024/03/19 07:52:56;;;;;;;36.30;27.80;;;;;;;7.79;100.00;100904.77;109483;1250;72918;-76
2024/03/19 07:55:23;;;;;;;43.20;34.60;;;;;;;7.88;100.00;100901.58;106865;1254;63965;-77
2024/03/19 07:57:50;;;;;;;42.50;34.30;;;;;;;7.95;100.00;100899.37;106014;1256;73735;-77
2024/03/19 08:00:18;;;;;;;45.30;36.40;;;;;;;8.06;100.00;100895.73;106114;1250;62108;-74
2024/03/19 08:02:44;;;;;;;43.50;34.90;;;;;;;8.30;100.00;100893.41;106180;1250;60441;-75
2024/03/19 08:05:14;;;;;;;43.30;34.20;;;;;;;8.55;100.00;100896.44;105973;1250;72757;-76
2024/03/19 08:07:43;;;;;;;38.90;33.00;;;;;;;8.83;100.00;100902.13;106083;1254;64033;-77
2024/03/19 08:10:10;;;;;;;32.90;29.40;;;;;;;9.08;100.00;100897.58;105992;1250;72599;-76
2024/03/19 08:12:37;;;;;;;31.80;28.10;;;;;;;9.34;100.00;100894.52;105912;1254;60541;-76
2024/03/19 08:15:04;;;;;;;33.10;29.10;;;;;;;9.62;100.00;100900.08;106051;1256;60413;-74
2024/03/19 08:17:32;;;;;;;32.50;28.60;;;;;;;9.89;100.00;100901.82;106071;1250;73216;-76
2024/03/19 08:19:59;;;;;;;42.70;33.70;;;;;;;10.09;100.00;100901.50;106110;1254;63129;-76
2024/03/19 08:22:25;;;;;;;34.90;30.10;;;;;;;10.15;100.00;100901.14;106116;1250;71540;-76
2024/03/19 08:24:53;;;;;;;33.00;26.60;;;;;;;10.15;100.00;100902.52;105944;1251;60449;-77
2024/03/19 08:27:20;;;;;;;31.30;27.00;;;;;;;10.10;100.00;100900.91;106017;1255;60425;-75
2024/03/19 08:29:47;;;;;;;31.00;26.40;;;;;;;10.08;100.00;100902.23;105860;1250;75094;-75
2024/03/19 08:32:22;;;;;;;32.60;28.10;;;;;;;10.06;100.00;100896.59;106002;1256;65453;-77
2024/03/19 08:34:49;;;;;;;30.00;26.80;;;;;;;10.00;100.00;100895.15;105992;1250;71996;-75
2024/03/19 08:37:16;;;;;;;34.20;27.70;;;;;;;10.00;100.00;100893.04;106048;1250;60714;-77
2024/03/19 08:39:43;;;;;;;31.50;26.80;;;;;;;10.05;100.00;100888.27;106065;1256;60511;-77
2024/03/19 08:42:10;;;;;;;31.60;26.50;;;;;;;10.12;100.00;100891.67;105949;1250;72335;-76
2024/03/19 08:44:38;;;;;;;28.40;23.90;;;;;;;10.23;100.00;100890.24;105963;1256;64084;-76
2024/03/19 08:47:05;;;;;;;32.90;27.00;;;;;;;10.38;100.00;100885.27;105927;1251;70862;-76
2024/03/19 08:49:32;;;;;;;37.10;30.30;;;;;;;10.59;100.00;100882.89;105969;1255;60533;-76
2024/03/19 08:51:58;;;;;;;32.40;26.80;;;;;;;10.71;100.00;100884.63;106019;1251;60441;-76
2024/03/19 08:54:25;;;;;;;29.80;26.60;;;;;;;10.81;100.00;100880.95;105997;1250;74074;-74
2024/03/19 08:56:52;;;;;;;29.00;25.50;;;;;;;11.00;100.00;100881.61;106016;1251;63595;-77
2024/03/19 08:59:19;;;;;;;27.20;23.40;;;;;;;11.21;100.00;100879.52;106029;1251;73024;-76
2024/03/19 09:01:46;;;;;;;29.90;26.70;;;;;;;11.49;100.00;100881.91;106028;1255;60724;-76
2024/03/19 09:04:12;;;;;;;29.50;25.80;;;;;;;11.93;100.00;100882.25;105940;1251;60503;-76
2024/03/19 09:06:39;;;;;;;25.50;22.80;;;;;;;12.56;100.00;100877.05;106031;1255;74946;-75
2024/03/19 09:09:06;;;;;;;26.00;22.40;;;;;;;13.30;100.00;100875.77;106078;1254;64232;-77
2024/03/19 09:11:34;;;;;;;26.80;23.60;;;;;;;13.95;100.00;100873.09;105927;1256;71959;-77
2024/03/19 09:14:01;;;;;;;27.60;22.50;;;;;;;14.42;95.97;100870.98;106063;1256;60521;-78
2024/03/19 09:16:28;;;;;;;25.50;22.90;;;;;;;14.54;89.16;100872.25;105994;1250;60595;-77
2024/03/19 09:18:55;;;;;;;31.20;25.30;;;;;;;14.52;86.83;100871.64;105969;1254;74100;-75
2024/03/19 09:21:22;;;;;;;27.50;21.90;;;;;;;14.57;87.46;100873.42;105913;1256;63009;-77
2024/03/19 09:23:48;;;;;;;27.10;23.20;;;;;;;14.70;87.33;100871.75;105907;1256;71410;-77
2024/03/19 09:26:15;;;;;;;24.80;21.90;;;;;;;14.90;85.91;100869.77;105952;1250;60595;-77
2024/03/19 09:28:41;;;;;;;30.20;26.10;;;;;;;15.20;81.57;100865.42;105991;1256;60450;-79
2024/03/19 09:31:08;;;;;;;25.70;23.00;;;;;;;15.62;82.98;100860.12;105907;1254;74933;-77
2024/03/19 09:33:38;;;;;;;26.30;23.30;;;;;;;16.13;81.50;100858.23;105905;1251;61744;-78
2024/03/19 09:36:05;;;;;;;26.80;24.00;;;;;;;16.57;72.97;100857.05;106068;1253;72942;-76
2024/03/19 09:38:32;;;;;;;24.20;21.70;;;;;;;16.97;68.60;100857.98;105987;1256;60472;-76
2024/03/19 09:41:02;;;;;;;24.00;21.50;;;;;;;17.06;64.97;100860.43;105967;1251;60437;-75
2024/03/19 09:43:33;;;;;;;25.10;22.50;;;;;;;16.81;60.14;100854.73;106084;1251;72821;-73
2024/03/19 09:46:00;;;;;;;23.60;21.30;;;;;;;16.35;60.37;100845.17;105898;1251;62039;-75
2024/03/19 09:48:28;;;;;;;23.70;21.20;;;;;;;15.86;61.45;100846.27;105942;1255;72108;-75
2024/03/19 09:50:57;;;;;;;25.90;23.20;;;;;;;15.20;64.00;100849.20;105952;1256;60455;-76
2024/03/19 09:53:24;;;;;;;30.50;24.10;;;;;;;14.55;68.53;100849.79;105997;1256;60376;-76
2024/03/19 09:55:52;;;;;;;32.00;27.00;;;;;;;14.15;72.47;100853.23;105810;1252;74857;-76
2024/03/19 09:58:21;;;;;;;31.90;27.60;;;;;;;13.94;74.50;100851.83;105787;1255;64160;-75
2024/03/19 10:00:51;;;;;;;39.50;30.00;;;;;;;13.78;76.94;100854.23;106069;1256;72848;-76
2024/03/19 10:03:17;;;;;;;36.10;29.70;;;;;;;13.64;78.58;100848.71;106043;1251;60496;-77
2024/03/19 10:05:44;;;;;;;34.00;28.50;;;;;;;13.45;79.25;100852.77;105950;1250;60507;-76
2024/03/19 10:08:13;;;;;;;33.50;28.20;;;;;;;13.31;81.09;100850.42;105970;1254;74274;-75
2024/03/19 10:10:40;;;;;;;35.80;29.80;;;;;;;13.05;86.69;100848.41;105960;1250;62815;-76
2024/03/19 10:13:11;;;;;;;34.60;29.10;;;;;;;12.88;91.31;100851.10;105981;1251;72821;-77
2024/03/19 10:15:38;;;;;;;32.80;26.90;;;;;;;12.76;91.16;100851.20;106038;1250;60529;-76
2024/03/19 10:20:28;;;;;;;31.90;26.80;;;;;;;12.50;93.87;100849.55;102681;1297;600953;-76
2024/03/19 10:22:55;;;;;;;32.50;26.10;;;;;;;12.32;99.07;100848.95;104796;1271;60619;-77
2024/03/19 10:25:23;;;;;;;34.50;27.60;;;;;;;12.17;100.00;100846.94;105319;1260;60661;-77
2024/03/19 10:27:50;;;;;;;36.00;29.50;;;;;;;12.09;100.00;100848.52;105269;1262;73052;-76
2024/03/19 10:30:20;;;;;;;39.20;29.00;;;;;;;12.07;100.00;100847.73;105316;1265;64051;-75
2024/03/19 10:32:50;;;;;;;28.60;24.60;;;;;;;12.00;100.00;100849.72;105479;1262;73030;-75
2024/03/19 10:35:21;;;;;;;35.80;26.20;;;;;;;11.93;100.00;100852.44;105284;1259;239383;-77
2024/03/19 10:37:53;;;;;;;35.60;25.90;;;;;;;11.83;100.00;100845.66;105722;1255;59529;-75
2024/03/19 10:40:22;;;;;;;32.10;23.10;;;;;;;11.81;100.00;100847.58;108422;1255;73852;-77
2024/03/19 10:42:50;;;;;;;31.10;24.80;;;;;;;11.85;100.00;100843.98;108623;1256;64604;-76
2024/03/19 10:45:25;;;;;;;30.20;24.70;;;;;;;11.93;100.00;100837.90;105633;1256;71505;-76
2024/03/19 10:47:52;;;;;;;;;;;;;;;12.05;100.00;100836.31;105415;1260;60416;-74
2024/03/19 10:50:21;;;;;;;32.50;20.70;;;;;;;12.15;100.00;100833.94;105363;1259;60534;-75
2024/03/19 10:53:09;;;;;;;34.20;23.60;;;;;;;12.16;100.00;100833.17;105515;1256;74989;-75
2024/03/19 10:55:36;;;;;;;31.00;24.10;;;;;;;12.27;100.00;100835.09;105707;1259;63493;-75
2024/03/19 10:58:10;;;;;;;29.40;22.70;;;;;;;12.42;100.00;100830.45;105387;1256;74147;-75
2024/03/19 11:00:41;;;;;;;28.70;21.60;;;;;;;12.52;100.00;100830.52;105598;1259;60519;-76
2024/03/19 11:03:15;;;;;;;25.60;22.20;;;;;;;12.64;100.00;100830.61;105465;1255;60533;-74
2024/03/19 11:05:51;;;;;;;33.80;25.00;;;;;;;12.79;100.00;100830.52;105515;1254;74901;-75
2024/03/19 11:08:19;;;;;;;32.70;25.10;;;;;;;13.05;100.00;100828.63;105519;1261;63778;-76
2024/03/19 11:10:47;;;;;;;35.60;27.90;;;;;;;13.39;99.83;100833.17;105611;1256;71214;-73
2024/03/19 11:13:22;;;;;;;30.00;24.30;;;;;;;13.83;95.94;100831.52;105534;1256;62099;-74
2024/03/19 11:15:49;;;;;;;36.00;27.90;;;;;;;14.23;88.95;100832.75;105562;1259;60923;-73
2024/03/19 11:18:18;;;;;;;28.20;23.40;;;;;;;14.29;82.18;100833.49;105445;1260;73438;-76
2024/03/19 11:20:51;;;;;;;35.40;28.20;;;;;;;14.18;83.97;100830.11;105739;1259;65871;-76